createdAt,value
2022-11-02T00:02:24.590Z,10.75
2022-11-02T00:12:29.681Z,10.66
2022-11-02T00:17:32.284Z,10.68
2022-11-02T00:22:34.847Z,10.62
2022-11-02T00:27:37.499Z,10.49
2022-11-02T00:32:40.215Z,10.42
2022-11-02T00:37:42.824Z,10.31
2022-11-02T00:42:45.350Z,10.22
2022-11-02T00:47:48.021Z,10.24
2022-11-02T00:57:53.437Z,10.07
2022-11-02T01:02:56.506Z,10.01
2022-11-02T01:13:01.847Z,9.93
2022-11-02T01:23:06.972Z,9.92
2022-11-02T01:28:09.723Z,9.9
2022-11-02T01:33:12.202Z,9.82
2022-11-02T01:38:14.801Z,9.73
2022-11-02T01:43:20.083Z,9.73
2022-11-02T01:48:22.839Z,9.75
2022-11-02T01:53:25.431Z,9.75
2022-11-02T01:58:28.186Z,9.73
2022-11-02T02:03:30.732Z,9.7
2022-11-02T02:08:33.627Z,9.66
2022-11-02T02:13:36.392Z,9.62
2022-11-02T02:18:38.887Z,9.59
2022-11-02T02:23:41.618Z,9.54
2022-11-02T02:28:44.362Z,9.52
2022-11-02T02:33:47.035Z,9.51
2022-11-02T02:43:52.361Z,9.42
2022-11-02T02:48:54.924Z,9.29
2022-11-02T02:53:57.498Z,9.25
2022-11-02T02:59:00.164Z,9.32
2022-11-02T03:04:02.766Z,9.29
2022-11-02T03:09:05.400Z,9.23
2022-11-02T03:14:08.029Z,9.21
2022-11-02T03:19:10.586Z,9.18
2022-11-02T03:24:13.166Z,9.12
2022-11-02T03:29:16.059Z,9.05
2022-11-02T03:34:18.682Z,8.98
2022-11-02T03:39:21.443Z,8.95
2022-11-02T03:44:24.101Z,8.96
2022-11-02T03:49:26.693Z,8.9
2022-11-02T03:54:29.336Z,8.86
2022-11-02T04:04:35.065Z,8.87
2022-11-02T04:09:37.841Z,8.86
2022-11-02T04:14:40.334Z,8.9
2022-11-02T04:24:54.587Z,8.89
2022-11-02T04:29:57.076Z,8.74
2022-11-02T04:45:05.208Z,8.75
2022-11-02T04:50:10.731Z,8.7
2022-11-02T05:00:16.065Z,8.6
2022-11-02T05:05:18.641Z,8.63
2022-11-02T05:10:21.516Z,8.61
2022-11-02T05:15:24.262Z,8.58
2022-11-02T05:20:26.871Z,8.58
2022-11-02T05:35:34.738Z,8.56
2022-11-02T05:40:37.415Z,8.62
2022-11-02T05:45:39.946Z,8.62
2022-11-02T05:55:45.395Z,8.59
2022-11-02T06:05:51.134Z,8.65
2022-11-02T06:10:53.601Z,8.65
2022-11-02T06:15:56.391Z,8.71
2022-11-02T06:21:01.842Z,8.74
2022-11-02T06:26:04.360Z,8.94
2022-11-02T06:31:07.300Z,8.97
2022-11-02T06:36:09.838Z,9.16
2022-11-02T06:46:15.415Z,9.5
2022-11-02T06:56:21.321Z,9.66
2022-11-02T07:01:26.694Z,9.77
2022-11-02T07:06:29.376Z,9.98
2022-11-02T07:11:32.131Z,10.11
2022-11-02T07:16:34.918Z,10.05
2022-11-02T07:21:37.666Z,10.27
2022-11-02T07:26:40.694Z,10.57
2022-11-02T07:31:43.380Z,10.99
2022-11-02T07:36:46.091Z,11.22
2022-11-02T07:41:51.848Z,11.61
2022-11-02T07:46:51.502Z,12.05
2022-11-02T07:51:54.097Z,12.36
2022-11-02T07:56:56.768Z,12.54
2022-11-02T08:01:59.481Z,12.45
2022-11-02T08:07:01.850Z,12.32
2022-11-02T08:12:07.174Z,12.4
2022-11-02T08:17:10.510Z,12.49
2022-11-02T08:22:13.223Z,12.61
2022-11-02T08:27:16.014Z,12.46
2022-11-02T08:32:18.470Z,12.27
2022-11-02T08:37:21.094Z,12.3
2022-11-02T08:42:23.616Z,12.37
2022-11-02T08:47:26.145Z,12.26
2022-11-02T08:52:28.812Z,12.2
2022-11-02T08:57:31.366Z,12.14
2022-11-02T09:02:36.900Z,12.41
2022-11-02T09:07:39.443Z,12.4
2022-11-02T09:12:42.331Z,12.73
2022-11-02T09:17:45.404Z,13.4
2022-11-02T09:22:48.147Z,13.74
2022-11-02T09:27:55.224Z,14.08
2022-11-02T09:32:56.312Z,14.24
2022-11-02T09:37:59.428Z,14.38
2022-11-02T09:43:05.284Z,14.53
2022-11-02T09:48:17.892Z,14.68
2022-11-02T09:58:13.371Z,14.88
2022-11-02T10:03:16.137Z,15.16
2022-11-02T10:08:18.659Z,15.24
2022-11-02T10:13:21.409Z,15.32
2022-11-02T10:23:26.695Z,15.62
2022-11-02T10:28:29.238Z,15.76
2022-11-02T10:39:01.867Z,16.18
2022-11-02T10:44:04.502Z,16.56
2022-11-02T10:49:10.222Z,16.67
2022-11-02T10:54:13.040Z,16.91
2022-11-02T10:59:15.764Z,16.96
2022-11-02T11:04:18.346Z,16.96
2022-11-02T11:09:20.928Z,16.95
2022-11-02T11:19:41.550Z,16.5
2022-11-02T11:24:28.596Z,16.37
2022-11-02T11:29:31.149Z,16.3
2022-11-02T11:34:33.681Z,16.54
2022-11-02T11:39:36.362Z,16.21
2022-11-02T11:50:03.341Z,16.05
2022-11-02T11:54:43.836Z,15.88
2022-11-02T11:59:46.489Z,15.83
2022-11-02T12:04:48.967Z,15.68
2022-11-02T12:09:51.820Z,16.5
2022-11-02T12:14:54.518Z,16.67
2022-11-02T12:19:57.058Z,16.69
2022-11-02T12:25:02.446Z,16.74
2022-11-02T12:30:05.197Z,16.93
2022-11-02T12:35:27.629Z,17.26
2022-11-02T12:50:16.090Z,17.13
2022-11-02T12:55:18.501Z,16.91
2022-11-02T13:00:21.003Z,16.67
2022-11-02T13:05:23.936Z,16.84
2022-11-02T13:10:26.708Z,16.77
2022-11-02T13:15:29.256Z,16.6
2022-11-02T13:20:31.802Z,16.43
2022-11-02T13:25:34.725Z,16.28
2022-11-02T13:30:37.297Z,16.18
2022-11-02T13:35:39.877Z,16.17
2022-11-02T13:40:42.921Z,16.29
2022-11-02T13:45:45.509Z,16.6
2022-11-02T13:50:48.407Z,16.48
2022-11-02T13:55:51.104Z,16.5
2022-11-02T14:00:53.985Z,16.21
2022-11-02T14:05:56.952Z,16.11
2022-11-02T14:11:03.196Z,15.74
2022-11-02T14:16:01.955Z,15.73
2022-11-02T14:21:04.545Z,15.49
2022-11-02T14:26:07.006Z,15.47
2022-11-02T14:31:09.487Z,15.44
2022-11-02T14:51:20.558Z,15.22
2022-11-02T14:56:23.116Z,15.17
2022-11-02T15:01:25.744Z,15.01
2022-11-02T15:06:28.601Z,14.86
2022-11-02T15:11:31.071Z,14.75
2022-11-02T15:16:33.782Z,14.72
2022-11-02T15:26:42.413Z,14.36
2022-11-02T15:31:44.747Z,14.22
2022-11-02T15:36:47.308Z,14.11
2022-11-02T15:41:52.385Z,13.97
2022-11-02T15:46:58.112Z,13.9
2022-11-02T15:52:00.739Z,13.83
2022-11-02T15:57:08.591Z,13.63
2022-11-02T16:02:11.199Z,13.52
2022-11-02T16:07:13.958Z,13.42
2022-11-02T16:12:16.595Z,13.4
2022-11-02T16:17:19.194Z,13.33
2022-11-02T16:22:22.078Z,13.33
2022-11-02T16:27:24.556Z,13.14
2022-11-02T16:32:27.019Z,13.06
2022-11-02T16:42:32.080Z,12.97
2022-11-02T16:57:40.048Z,12.82
2022-11-02T17:07:49.133Z,12.57
2022-11-02T17:12:52.187Z,12.61
2022-11-02T17:17:54.806Z,12.54
2022-11-02T17:22:57.372Z,12.46
2022-11-02T17:28:10.775Z,12.37
2022-11-02T17:38:16.142Z,12.24
2022-11-02T17:43:18.800Z,12.19
2022-11-02T17:53:23.970Z,12.06
2022-11-02T17:58:26.455Z,11.93
2022-11-02T18:03:31.318Z,11.79
2022-11-02T18:08:31.565Z,11.75
2022-11-02T18:13:34.298Z,11.57
2022-11-02T18:18:36.956Z,11.43
2022-11-02T18:23:39.662Z,11.36
2022-11-02T18:28:54.692Z,11.36
2022-11-02T18:33:57.440Z,11.23
2022-11-02T18:49:05.308Z,11.1
2022-11-02T18:54:07.926Z,11.07
2022-11-02T19:04:17.753Z,10.72
2022-11-02T19:19:24.279Z,10.08
2022-11-02T19:29:29.572Z,9.89
2022-11-02T19:34:32.324Z,9.93
2022-11-02T19:39:34.880Z,9.75
2022-11-02T19:49:42.755Z,9.54
2022-11-02T20:09:54.672Z,9.19
2022-11-02T20:14:56.220Z,8.98
2022-11-02T20:19:58.594Z,8.89
2022-11-02T20:25:01.309Z,8.93
2022-11-02T20:30:03.766Z,8.89
2022-11-02T20:35:09.739Z,8.93
2022-11-02T20:40:08.895Z,8.92
2022-11-02T20:45:11.366Z,8.79
2022-11-02T21:00:19.935Z,8.69
2022-11-02T21:05:22.715Z,8.69
2022-11-02T21:10:25.374Z,8.64
2022-11-02T21:20:34.623Z,8.62
2022-11-02T21:25:36.133Z,8.56
2022-11-02T21:30:41.435Z,8.55
2022-11-02T21:35:44.334Z,8.44
2022-11-02T21:45:49.657Z,8.36
2022-11-02T21:50:52.695Z,8.26
2022-11-02T22:00:58.015Z,8.21
2022-11-02T22:06:00.883Z,8.28
2022-11-02T22:16:06.065Z,8.34
2022-11-02T22:26:11.500Z,8.22
2022-11-02T22:36:16.555Z,8.08
2022-11-02T22:41:19.288Z,7.99
2022-11-02T22:46:21.850Z,7.92
2022-11-02T22:51:24.484Z,7.97
2022-11-02T22:56:27.574Z,7.89
2022-11-02T23:06:35.411Z,7.82
2022-11-02T23:11:38.150Z,7.75
2022-11-02T23:21:43.676Z,7.72
2022-11-02T23:26:46.755Z,7.72
2022-11-02T23:36:51.702Z,7.62
2022-11-02T23:47:03.233Z,7.52
2022-11-02T23:57:08.538Z,7.37
